createdAt,value
2017-09-02T00:00:29.808Z,72.79
2017-09-02T00:01:01.383Z,72.77
2017-09-02T00:01:32.992Z,72.59
2017-09-02T00:02:04.608Z,72.55
2017-09-02T00:02:36.309Z,72.46
2017-09-02T00:03:07.922Z,72.49
2017-09-02T00:03:39.488Z,72.46
2017-09-02T00:04:11.233Z,72.61
2017-09-02T00:04:42.845Z,72.69
2017-09-02T00:05:14.417Z,72.53
2017-09-02T00:05:46.003Z,72.56
2017-09-02T00:06:17.802Z,72.96
2017-09-02T00:06:49.376Z,72.93
2017-09-02T00:07:21.086Z,72.61
2017-09-02T00:07:52.685Z,72.51
2017-09-02T00:08:24.310Z,72.89
2017-09-02T00:08:55.896Z,72.54
2017-09-02T00:09:27.461Z,72.85
2017-09-02T00:09:59.295Z,72.94
2017-09-02T00:10:30.875Z,72.75
2017-09-02T00:11:02.578Z,72.69
2017-09-02T00:11:34.156Z,72.79
2017-09-02T00:12:05.768Z,73.01
2017-09-02T00:12:37.329Z,73.58
2017-09-02T00:13:08.907Z,73.34
2017-09-02T00:13:40.638Z,73.02
2017-09-02T00:14:12.430Z,72.89
2017-09-02T00:14:43.993Z,72.88
2017-09-02T00:15:15.615Z,72.77
2017-09-02T00:15:47.210Z,71.73
2017-09-02T00:16:18.793Z,72.08
2017-09-02T00:16:50.355Z,72.47
2017-09-02T00:17:21.938Z,72.44
2017-09-02T00:17:53.528Z,72.61
2017-09-02T00:18:25.124Z,72.48
2017-09-02T00:18:56.695Z,72.63
2017-09-02T00:19:28.252Z,72.62
2017-09-02T00:19:59.830Z,72.73
2017-09-02T00:20:31.521Z,72.76
2017-09-02T00:21:03.092Z,72.52
2017-09-02T00:21:34.660Z,72.37
2017-09-02T00:22:06.241Z,72.57
2017-09-02T00:22:37.821Z,72.49
2017-09-02T00:23:09.452Z,72.39
2017-09-02T00:23:41.036Z,72.63
2017-09-02T00:24:12.649Z,72.58
2017-09-02T00:24:44.230Z,72.60
2017-09-02T00:25:15.809Z,72.59
2017-09-02T00:25:47.724Z,72.61
2017-09-02T00:26:19.420Z,72.53
2017-09-02T00:26:51.225Z,72.68
2017-09-02T00:27:22.808Z,72.67
2017-09-02T00:27:54.413Z,72.63
2017-09-02T00:28:25.995Z,72.76
2017-09-02T00:28:57.790Z,72.87
2017-09-02T00:29:29.367Z,72.74
2017-09-02T00:30:00.956Z,72.59
2017-09-02T00:30:32.538Z,72.55
2017-09-02T00:31:04.167Z,72.58
2017-09-02T00:31:35.751Z,72.52
2017-09-02T00:32:07.327Z,72.53
2017-09-02T00:32:38.948Z,72.42
2017-09-02T00:33:10.534Z,72.54
2017-09-02T00:33:42.117Z,72.52
2017-09-02T00:34:13.901Z,72.38
2017-09-02T00:34:45.477Z,72.57
2017-09-02T00:35:17.097Z,72.52
2017-09-02T00:35:48.670Z,72.51
2017-09-02T00:36:20.294Z,72.39
2017-09-02T00:36:51.894Z,72.46
2017-09-02T00:37:23.466Z,72.52
2017-09-02T00:37:55.127Z,72.61
2017-09-02T00:38:26.726Z,72.46
2017-09-02T00:38:58.373Z,72.32
2017-09-02T00:39:29.969Z,72.63
2017-09-02T00:40:01.655Z,72.47
2017-09-02T00:40:34.220Z,72.75
2017-09-02T00:41:05.820Z,72.34
2017-09-02T00:41:37.427Z,72.37
2017-09-02T00:42:09.008Z,72.48
2017-09-02T00:42:40.576Z,72.55
2017-09-02T00:43:12.194Z,72.28
2017-09-02T00:43:43.800Z,72.33
2017-09-02T00:44:15.404Z,72.32
2017-09-02T00:44:46.992Z,72.31
2017-09-02T00:45:18.733Z,72.33
2017-09-02T00:45:50.311Z,72.18
2017-09-02T00:46:21.898Z,72.37
2017-09-02T00:46:53.540Z,72.29
2017-09-02T00:47:25.256Z,72.19
2017-09-02T00:47:56.845Z,72.22
2017-09-02T00:48:28.542Z,72.27
2017-09-02T00:49:00.121Z,72.30
2017-09-02T00:49:31.697Z,72.43
2017-09-02T00:50:03.292Z,72.24
2017-09-02T00:50:34.863Z,72.54
2017-09-02T00:51:06.464Z,72.76
2017-09-02T00:51:38.069Z,72.77
2017-09-02T00:52:09.728Z,72.39
2017-09-02T00:52:41.323Z,72.54
2017-09-02T00:53:12.905Z,72.73
2017-09-02T00:53:44.478Z,72.31
2017-09-02T00:54:16.294Z,72.65
2017-09-02T00:54:47.918Z,72.46
2017-09-02T00:55:19.498Z,72.30
2017-09-02T00:55:51.071Z,72.44
2017-09-02T00:56:22.637Z,72.21
2017-09-02T00:56:54.207Z,72.60
2017-09-02T00:57:25.793Z,72.39
2017-09-02T00:57:57.384Z,72.54
2017-09-02T00:58:28.958Z,72.36
2017-09-02T00:59:00.527Z,72.50
2017-09-02T00:59:32.116Z,72.38
2017-09-02T01:00:03.695Z,72.50
2017-09-02T01:00:35.275Z,72.44
2017-09-02T01:01:06.879Z,72.27
2017-09-02T01:01:38.463Z,72.36
2017-09-02T01:02:10.040Z,72.34
2017-09-02T01:02:41.653Z,72.53
2017-09-02T01:03:13.236Z,72.45
2017-09-02T01:03:44.928Z,72.17
2017-09-02T01:04:16.513Z,72.40
2017-09-02T01:04:48.213Z,72.47
2017-09-02T01:05:19.811Z,72.26
2017-09-02T01:05:52.422Z,72.34
2017-09-02T01:06:23.982Z,72.48
2017-09-02T01:06:55.571Z,72.39
2017-09-02T01:07:27.147Z,72.49
2017-09-02T01:07:58.753Z,72.44
2017-09-02T01:08:30.352Z,72.30
2017-09-02T01:09:02.266Z,72.30
2017-09-02T01:09:33.830Z,72.40
2017-09-02T01:10:05.396Z,72.24
2017-09-02T01:10:37.170Z,72.47
2017-09-02T01:11:08.748Z,72.38
2017-09-02T01:11:40.346Z,72.21
2017-09-02T01:12:11.915Z,72.38
2017-09-02T01:12:43.536Z,72.14
2017-09-02T01:13:15.595Z,72.21
2017-09-02T01:13:47.218Z,72.29
2017-09-02T01:14:18.816Z,72.44
2017-09-02T01:14:50.423Z,72.30
2017-09-02T01:15:22.008Z,72.40
2017-09-02T01:15:53.609Z,72.13
2017-09-02T01:16:25.183Z,72.34
2017-09-02T01:16:56.895Z,72.28
2017-09-02T01:17:28.495Z,72.26
2017-09-02T01:18:00.103Z,72.21
2017-09-02T01:18:31.721Z,72.24
2017-09-02T01:19:03.302Z,72.32
2017-09-02T01:19:34.899Z,72.17
2017-09-02T01:20:06.483Z,72.19
2017-09-02T01:20:38.080Z,72.26
2017-09-02T01:21:09.728Z,72.13
2017-09-02T01:21:41.301Z,72.18
2017-09-02T01:22:12.893Z,72.20
2017-09-02T01:22:44.501Z,72.22
2017-09-02T01:23:16.207Z,72.33
2017-09-02T01:23:47.831Z,72.23
2017-09-02T01:24:19.482Z,72.40
2017-09-02T01:24:51.080Z,72.28
2017-09-02T01:25:22.671Z,72.13
2017-09-02T01:25:54.266Z,72.20
2017-09-02T01:26:25.840Z,72.21
2017-09-02T01:26:57.410Z,72.18
2017-09-02T01:27:28.980Z,72.34
2017-09-02T01:28:00.560Z,72.16
2017-09-02T01:28:32.138Z,71.96
2017-09-02T01:29:03.767Z,71.94
2017-09-02T01:29:35.354Z,72.06
2017-09-02T01:30:06.931Z,72.09
2017-09-02T01:30:39.462Z,72.08
2017-09-02T01:31:11.081Z,72.08
2017-09-02T01:31:42.632Z,72.14
2017-09-02T01:32:14.231Z,72.09
2017-09-02T01:32:45.857Z,72.33
2017-09-02T01:33:17.429Z,72.09
2017-09-02T01:33:48.998Z,72.04
2017-09-02T01:34:20.603Z,72.16
2017-09-02T01:34:52.192Z,72.08
2017-09-02T01:35:23.787Z,71.97
2017-09-02T01:35:55.347Z,72.00
2017-09-02T01:36:26.918Z,72.14
2017-09-02T01:36:58.501Z,72.20
2017-09-02T01:37:30.076Z,72.10
2017-09-02T01:38:01.652Z,72.16
2017-09-02T01:38:33.241Z,72.09
2017-09-02T01:39:04.830Z,72.07
2017-09-02T01:39:36.574Z,71.87
2017-09-02T01:40:08.173Z,72.06
2017-09-02T01:40:39.738Z,72.31
2017-09-02T01:41:11.343Z,71.86
2017-09-02T01:41:43.154Z,72.04
2017-09-02T01:42:14.724Z,72.25
2017-09-02T01:42:46.287Z,72.26
2017-09-02T01:43:18.054Z,72.04
2017-09-02T01:43:49.658Z,72.07
2017-09-02T01:44:21.226Z,72.03
2017-09-02T01:44:52.850Z,72.23
2017-09-02T01:45:24.447Z,72.12
2017-09-02T01:45:56.050Z,72.01
2017-09-02T01:46:27.614Z,72.02
2017-09-02T01:46:59.211Z,72.03
2017-09-02T01:47:30.780Z,71.93
2017-09-02T01:48:02.367Z,72.12
2017-09-02T01:48:33.981Z,72.03
2017-09-02T01:49:05.712Z,72.08
2017-09-02T01:49:37.291Z,72.03
2017-09-02T01:50:09.373Z,72.10
2017-09-02T01:50:40.955Z,72.00
2017-09-02T01:51:12.536Z,71.97
2017-09-02T01:51:44.344Z,71.99
2017-09-02T01:52:15.979Z,72.02
2017-09-02T01:52:47.550Z,72.18
2017-09-02T01:53:19.265Z,72.06
2017-09-02T01:53:50.846Z,72.21
2017-09-02T01:54:22.569Z,72.07
2017-09-02T01:54:54.147Z,72.02
2017-09-02T01:55:26.035Z,71.94
2017-09-02T01:55:57.610Z,72.03
2017-09-02T01:56:29.178Z,71.95
2017-09-02T01:57:00.884Z,71.94
2017-09-02T01:57:32.481Z,71.97
2017-09-02T01:58:04.352Z,72.10
2017-09-02T01:58:35.964Z,72.11
2017-09-02T01:59:07.522Z,72.04
2017-09-02T01:59:39.113Z,72.10
2017-09-02T02:00:10.916Z,72.21
2017-09-02T02:00:42.561Z,72.15
2017-09-02T02:01:14.133Z,72.09
2017-09-02T02:01:45.842Z,72.00
2017-09-02T02:02:17.421Z,71.94
2017-09-02T02:02:48.986Z,72.06
2017-09-02T02:03:20.564Z,72.23
2017-09-02T02:03:52.139Z,72.02
2017-09-02T02:04:23.700Z,72.12
2017-09-02T02:04:55.385Z,72.05
2017-09-02T02:05:26.978Z,71.95
2017-09-02T02:05:58.588Z,72.09
2017-09-02T02:06:30.185Z,72.10
2017-09-02T02:07:01.758Z,72.14
2017-09-02T02:07:33.603Z,72.09
2017-09-02T02:08:05.244Z,71.99
2017-09-02T02:08:36.824Z,72.03
2017-09-02T02:09:08.523Z,71.99
2017-09-02T02:09:40.104Z,72.05
2017-09-02T02:10:11.807Z,72.11
2017-09-02T02:10:43.388Z,72.04
2017-09-02T02:11:14.950Z,72.06
2017-09-02T02:11:46.521Z,71.97
2017-09-02T02:12:18.089Z,72.07
2017-09-02T02:12:49.653Z,72.05
2017-09-02T02:13:21.350Z,72.09
2017-09-02T02:13:52.939Z,72.12
2017-09-02T02:14:24.633Z,72.22
2017-09-02T02:14:56.212Z,72.12
2017-09-02T02:15:27.884Z,72.05
2017-09-02T02:15:59.502Z,71.99
2017-09-02T02:16:31.108Z,72.26
2017-09-02T02:17:02.708Z,72.12
2017-09-02T02:17:34.296Z,72.05
2017-09-02T02:18:06.126Z,71.89
2017-09-02T02:18:37.708Z,71.83
2017-09-02T02:19:09.415Z,72.12
2017-09-02T02:19:40.990Z,72.03
2017-09-02T02:20:12.689Z,72.04
2017-09-02T02:20:44.270Z,71.94
2017-09-02T02:21:15.863Z,71.86
2017-09-02T02:21:47.469Z,71.98
2017-09-02T02:22:19.063Z,72.06
2017-09-02T02:22:50.683Z,71.95
2017-09-02T02:23:22.259Z,71.94
2017-09-02T02:23:53.830Z,72.01
2017-09-02T02:24:25.529Z,72.17
2017-09-02T02:24:57.111Z,72.06
2017-09-02T02:25:28.811Z,71.97
2017-09-02T02:26:00.392Z,72.01
2017-09-02T02:26:31.984Z,72.13
2017-09-02T02:27:04.713Z,72.02
2017-09-02T02:27:36.319Z,72.20
2017-09-02T02:28:07.939Z,72.28
2017-09-02T02:28:39.748Z,72.20
2017-09-02T02:29:11.327Z,72.33
2017-09-02T02:29:42.913Z,72.13
2017-09-02T02:30:14.506Z,72.11
2017-09-02T02:30:46.120Z,72.26
2017-09-02T02:31:17.721Z,72.09
2017-09-02T02:31:49.430Z,72.14
2017-09-02T02:32:21.070Z,72.13
2017-09-02T02:32:52.677Z,72.03
2017-09-02T02:33:24.255Z,71.96
2017-09-02T02:33:55.838Z,72.15
2017-09-02T02:34:27.644Z,72.23
2017-09-02T02:34:59.243Z,72.08
2017-09-02T02:35:30.925Z,72.00
2017-09-02T02:36:02.523Z,72.04
2017-09-02T02:36:34.138Z,72.14
2017-09-02T02:37:05.865Z,72.02
2017-09-02T02:37:37.455Z,72.08
2017-09-02T02:38:09.037Z,72.11
2017-09-02T02:38:40.602Z,72.04
2017-09-02T02:39:12.202Z,72.06
2017-09-02T02:39:43.777Z,71.91
2017-09-02T02:40:15.376Z,72.03
2017-09-02T02:40:47.201Z,72.02
2017-09-02T02:41:18.800Z,71.94
2017-09-02T02:41:50.370Z,71.99
2017-09-02T02:42:21.986Z,71.94
2017-09-02T02:42:53.603Z,71.81
2017-09-02T02:43:25.187Z,71.89
2017-09-02T02:43:56.770Z,71.97
2017-09-02T02:44:28.366Z,71.83
2017-09-02T02:45:00.176Z,71.88
2017-09-02T02:45:31.774Z,71.96
2017-09-02T02:46:03.365Z,72.00
2017-09-02T02:46:34.932Z,72.09
2017-09-02T02:47:06.739Z,71.97
2017-09-02T02:47:38.314Z,71.90
2017-09-02T02:48:10.082Z,71.91
2017-09-02T02:48:41.673Z,71.83
2017-09-02T02:49:13.246Z,71.87
2017-09-02T02:49:44.806Z,71.84
2017-09-02T02:50:16.591Z,71.93
2017-09-02T02:50:48.179Z,71.75
2017-09-02T02:51:19.873Z,72.02
2017-09-02T02:51:51.449Z,72.05
2017-09-02T02:52:23.024Z,72.05
2017-09-02T02:52:54.621Z,71.95
2017-09-02T02:53:26.441Z,72.06
2017-09-02T02:53:58.042Z,72.26
2017-09-02T02:54:29.743Z,72.06
2017-09-02T02:55:01.314Z,72.05
2017-09-02T02:55:32.889Z,71.99
2017-09-02T02:56:04.455Z,72.16
2017-09-02T02:56:36.034Z,71.97
2017-09-02T02:57:07.625Z,71.93
2017-09-02T02:57:39.203Z,71.84
2017-09-02T02:58:10.910Z,71.99
2017-09-02T02:58:42.546Z,71.89
2017-09-02T02:59:14.114Z,72.05
2017-09-02T02:59:45.694Z,72.23
2017-09-02T03:00:17.273Z,72.04
2017-09-02T03:00:48.834Z,72.01
2017-09-02T03:01:20.400Z,71.95
2017-09-02T03:01:52.102Z,72.08
2017-09-02T03:02:23.681Z,72.15
2017-09-02T03:02:55.250Z,72.32
2017-09-02T03:03:26.822Z,72.24
2017-09-02T03:03:58.665Z,72.42
2017-09-02T03:04:30.256Z,72.03
2017-09-02T03:05:01.948Z,72.17
2017-09-02T03:05:33.525Z,72.04
2017-09-02T03:06:05.092Z,71.98
2017-09-02T03:06:36.874Z,72.08
2017-09-02T03:07:08.685Z,72.10
2017-09-02T03:07:40.267Z,72.06
2017-09-02T03:08:11.844Z,72.08
2017-09-02T03:08:43.409Z,71.95
2017-09-02T03:09:15.022Z,72.09
2017-09-02T03:09:46.725Z,72.41
2017-09-02T03:10:18.316Z,72.58
2017-09-02T03:10:49.904Z,72.46
2017-09-02T03:11:21.500Z,72.56
2017-09-02T03:11:53.068Z,72.31
2017-09-02T03:12:24.679Z,72.53
2017-09-02T03:12:56.274Z,72.46
2017-09-02T03:13:27.869Z,72.28
2017-09-02T03:13:59.450Z,72.24
2017-09-02T03:14:31.195Z,72.39
2017-09-02T03:15:02.774Z,72.16
2017-09-02T03:15:34.480Z,72.24
2017-09-02T03:16:06.052Z,72.33
2017-09-02T03:16:37.763Z,72.43
2017-09-02T03:17:09.342Z,72.28
2017-09-02T03:17:41.048Z,72.29
2017-09-02T03:18:12.603Z,72.23
2017-09-02T03:18:44.172Z,72.38
2017-09-02T03:19:15.730Z,72.36
2017-09-02T03:19:47.524Z,72.25
2017-09-02T03:20:19.097Z,72.22
2017-09-02T03:20:50.860Z,72.39
2017-09-02T03:21:22.445Z,72.32
2017-09-02T03:21:54.035Z,72.26
2017-09-02T03:22:25.831Z,72.27
2017-09-02T03:22:57.637Z,72.19
2017-09-02T03:23:29.404Z,72.42
2017-09-02T03:24:00.993Z,72.24
2017-09-02T03:24:32.697Z,72.18
2017-09-02T03:25:04.305Z,72.20
2017-09-02T03:25:35.982Z,72.20
2017-09-02T03:26:07.555Z,72.27
2017-09-02T03:26:39.267Z,72.13
2017-09-02T03:27:10.857Z,72.20
2017-09-02T03:27:42.559Z,72.15
2017-09-02T03:28:14.145Z,72.24
2017-09-02T03:28:45.833Z,72.24
2017-09-02T03:29:17.432Z,72.15
2017-09-02T03:29:49.035Z,72.27
2017-09-02T03:30:20.687Z,72.22
2017-09-02T03:30:52.271Z,72.18
2017-09-02T03:31:23.872Z,72.35
2017-09-02T03:31:55.448Z,72.22
2017-09-02T03:32:27.017Z,72.21
2017-09-02T03:32:58.616Z,72.32
2017-09-02T03:33:30.201Z,72.34
2017-09-02T03:34:01.780Z,72.13
2017-09-02T03:34:33.342Z,72.19
2017-09-02T03:35:04.941Z,72.23
2017-09-02T03:35:36.773Z,72.12
2017-09-02T03:36:08.349Z,72.11
2017-09-02T03:36:40.174Z,72.10
2017-09-02T03:37:11.737Z,72.15
2017-09-02T03:37:43.301Z,72.15
2017-09-02T03:38:14.886Z,72.21
2017-09-02T03:38:46.466Z,72.12
2017-09-02T03:39:18.060Z,72.16
2017-09-02T03:39:49.622Z,72.21
2017-09-02T03:40:21.341Z,72.13
2017-09-02T03:40:53.185Z,72.19
2017-09-02T03:41:24.773Z,72.12
2017-09-02T03:41:56.575Z,72.18
2017-09-02T03:42:28.180Z,72.17
2017-09-02T03:43:00.750Z,72.20
2017-09-02T03:43:32.320Z,72.27
2017-09-02T03:44:03.913Z,72.14
2017-09-02T03:44:35.704Z,72.30
2017-09-02T03:45:07.285Z,72.13
2017-09-02T03:45:38.846Z,72.03
2017-09-02T03:46:10.453Z,72.17
2017-09-02T03:46:42.036Z,72.20
2017-09-02T03:47:13.614Z,72.24
2017-09-02T03:47:45.197Z,72.06
2017-09-02T03:48:16.896Z,72.15
2017-09-02T03:48:48.470Z,72.07
2017-09-02T03:49:20.035Z,72.04
2017-09-02T03:49:51.614Z,72.11
2017-09-02T03:50:23.178Z,72.11
2017-09-02T03:50:54.742Z,72.01
2017-09-02T03:51:26.351Z,72.11
2017-09-02T03:51:57.912Z,72.16
2017-09-02T03:52:29.480Z,72.15
2017-09-02T03:53:01.050Z,72.53
2017-09-02T03:53:33.622Z,72.26
2017-09-02T03:54:05.194Z,72.39
2017-09-02T03:54:36.755Z,72.44
2017-09-02T03:55:08.699Z,72.33
2017-09-02T03:55:40.409Z,72.46
2017-09-02T03:56:11.977Z,72.55
2017-09-02T03:56:43.575Z,72.42
2017-09-02T03:57:15.174Z,72.33
2017-09-02T03:57:46.770Z,72.43
2017-09-02T03:58:18.334Z,72.34
2017-09-02T03:58:49.896Z,72.49
2017-09-02T03:59:22.135Z,72.29
2017-09-02T03:59:53.733Z,72.33
2017-09-02T04:00:25.345Z,72.37
2017-09-02T04:00:56.958Z,72.42
2017-09-02T04:01:28.750Z,72.59
2017-09-02T04:02:00.359Z,72.41
2017-09-02T04:02:32.149Z,72.37
2017-09-02T04:03:03.726Z,72.38
2017-09-02T04:03:35.310Z,72.52
2017-09-02T04:04:06.882Z,72.63
2017-09-02T04:04:38.584Z,72.48
2017-09-02T04:05:10.160Z,72.33
2017-09-02T04:05:41.986Z,72.39
2017-09-02T04:06:13.559Z,72.58
2017-09-02T04:06:45.282Z,72.50
2017-09-02T04:07:16.922Z,72.65
2017-09-02T04:07:48.501Z,72.24
2017-09-02T04:08:20.052Z,72.69
2017-09-02T04:08:51.848Z,72.37
2017-09-02T04:09:23.447Z,72.38
2017-09-02T04:09:55.032Z,72.20
2017-09-02T04:10:26.606Z,72.42
2017-09-02T04:10:58.174Z,72.46
2017-09-02T04:11:29.756Z,72.40
2017-09-02T04:12:01.331Z,72.41
2017-09-02T04:12:32.940Z,72.56
2017-09-02T04:13:04.528Z,72.40
2017-09-02T04:13:36.118Z,72.37
2017-09-02T04:14:07.692Z,72.41
2017-09-02T04:14:39.295Z,72.23
2017-09-02T04:15:10.878Z,72.33
2017-09-02T04:15:42.583Z,72.34
2017-09-02T04:16:14.217Z,72.51
2017-09-02T04:16:45.803Z,72.45
2017-09-02T04:17:17.413Z,72.68
2017-09-02T04:17:49.143Z,72.44
2017-09-02T04:18:20.742Z,72.65
2017-09-02T04:18:52.327Z,72.58
2017-09-02T04:19:23.907Z,72.25
2017-09-02T04:19:55.481Z,72.43
2017-09-02T04:20:27.058Z,72.54
2017-09-02T04:20:58.627Z,72.27
2017-09-02T04:21:30.332Z,72.26
2017-09-02T04:22:01.903Z,72.35
2017-09-02T04:22:33.478Z,72.28
2017-09-02T04:23:05.111Z,72.33
2017-09-02T04:23:36.688Z,72.18
2017-09-02T04:24:08.257Z,72.21
2017-09-02T04:24:39.843Z,72.17
2017-09-02T04:25:11.521Z,72.17
2017-09-02T04:25:43.126Z,72.17
2017-09-02T04:26:14.695Z,72.20
2017-09-02T04:26:46.260Z,72.24
2017-09-02T04:27:17.831Z,72.37
2017-09-02T04:27:49.417Z,72.28
2017-09-02T04:28:21.062Z,72.38
2017-09-02T04:28:52.646Z,72.33
2017-09-02T04:29:24.345Z,72.28
2017-09-02T04:29:55.943Z,72.23
2017-09-02T04:30:27.528Z,72.18
2017-09-02T04:30:59.129Z,72.30
2017-09-02T04:31:30.704Z,72.28
2017-09-02T04:32:02.283Z,72.13
2017-09-02T04:32:33.882Z,72.16
2017-09-02T04:33:05.453Z,72.14
2017-09-02T04:33:37.088Z,72.20
2017-09-02T04:34:08.670Z,72.19
2017-09-02T04:34:40.447Z,72.13
2017-09-02T04:35:12.069Z,72.22
2017-09-02T04:35:43.914Z,72.36
2017-09-02T04:36:15.504Z,72.28
2017-09-02T04:36:47.340Z,72.33
2017-09-02T04:37:18.929Z,72.24
2017-09-02T04:37:50.613Z,72.22
2017-09-02T04:38:22.205Z,72.14
2017-09-02T04:38:54.106Z,72.16
2017-09-02T04:39:26.677Z,72.30
2017-09-02T04:39:58.259Z,72.08
2017-09-02T04:40:29.847Z,72.10
2017-09-02T04:41:01.428Z,72.30
2017-09-02T04:41:33.030Z,72.13
2017-09-02T04:42:04.606Z,72.21
2017-09-02T04:42:36.315Z,72.22
2017-09-02T04:43:07.905Z,72.16
2017-09-02T04:43:39.496Z,72.14
2017-09-02T04:44:11.124Z,72.24
2017-09-02T04:44:42.701Z,72.13
2017-09-02T04:45:14.528Z,72.13
2017-09-02T04:45:46.085Z,72.10
2017-09-02T04:46:17.700Z,72.09
2017-09-02T04:46:49.286Z,72.09
2017-09-02T04:47:20.860Z,72.08
2017-09-02T04:47:52.455Z,72.04
2017-09-02T04:48:24.067Z,72.12
2017-09-02T04:48:55.658Z,72.15
2017-09-02T04:49:27.282Z,72.29
2017-09-02T04:49:58.865Z,72.11
2017-09-02T04:50:30.452Z,72.25
2017-09-02T04:51:02.024Z,72.11
2017-09-02T04:51:33.618Z,72.03
2017-09-02T04:52:05.227Z,72.23
2017-09-02T04:52:36.794Z,72.16
2017-09-02T04:53:08.587Z,72.11
2017-09-02T04:53:40.192Z,72.11
2017-09-02T04:54:11.760Z,72.16
2017-09-02T04:54:43.412Z,72.25
2017-09-02T04:55:15.019Z,72.22
2017-09-02T04:55:46.624Z,72.08
2017-09-02T04:56:18.221Z,72.23
2017-09-02T04:56:49.784Z,72.28
2017-09-02T04:57:21.369Z,72.17
2017-09-02T04:57:52.949Z,72.32
2017-09-02T04:58:24.567Z,72.40
2017-09-02T04:58:56.256Z,72.27
2017-09-02T04:59:27.842Z,72.33
2017-09-02T04:59:59.588Z,72.46
2017-09-02T05:00:31.180Z,72.45
2017-09-02T05:01:02.747Z,72.38
2017-09-02T05:01:34.319Z,72.44
2017-09-02T05:02:05.897Z,72.50
2017-09-02T05:02:37.489Z,72.23
2017-09-02T05:03:09.098Z,72.15
2017-09-02T05:03:40.676Z,72.24
2017-09-02T05:04:12.254Z,72.43
2017-09-02T05:04:44.952Z,72.38
2017-09-02T05:05:17.723Z,72.49
2017-09-02T05:05:49.311Z,72.48
2017-09-02T05:06:21.128Z,72.46
2017-09-02T05:06:52.730Z,72.66
2017-09-02T05:07:24.334Z,72.59
2017-09-02T05:07:56.048Z,72.58
2017-09-02T05:08:27.650Z,72.56
2017-09-02T05:08:59.260Z,72.50
2017-09-02T05:09:30.829Z,72.49
2017-09-02T05:10:02.617Z,72.50
2017-09-02T05:10:34.195Z,72.50
2017-09-02T05:11:05.901Z,72.62
2017-09-02T05:11:37.477Z,72.52
2017-09-02T05:12:09.043Z,72.51
2017-09-02T05:12:40.810Z,72.49
2017-09-02T05:13:12.395Z,72.57
2017-09-02T05:13:43.953Z,72.47
2017-09-02T05:14:15.555Z,72.53
2017-09-02T05:14:47.126Z,72.54
2017-09-02T05:15:18.727Z,72.53
2017-09-02T05:15:50.367Z,72.51
2017-09-02T05:16:21.951Z,72.59
2017-09-02T05:16:53.552Z,72.91
2017-09-02T05:17:25.136Z,72.67
2017-09-02T05:17:56.751Z,72.86
2017-09-02T05:18:28.336Z,72.87
2017-09-02T05:18:59.916Z,72.69
2017-09-02T05:19:31.485Z,72.67
2017-09-02T05:20:03.197Z,72.73
2017-09-02T05:20:34.766Z,72.63
2017-09-02T05:21:06.687Z,72.87
2017-09-02T05:21:38.275Z,72.67
2017-09-02T05:22:10.074Z,72.69
2017-09-02T05:22:41.645Z,72.63
2017-09-02T05:23:13.212Z,72.62
2017-09-02T05:23:44.999Z,72.71
2017-09-02T05:24:16.581Z,72.74
2017-09-02T05:24:48.281Z,72.74
2017-09-02T05:25:19.881Z,72.72
2017-09-02T05:25:51.493Z,72.68
2017-09-02T05:26:23.449Z,72.48
2017-09-02T05:26:55.054Z,72.56
2017-09-02T05:27:26.634Z,72.64
2017-09-02T05:27:58.240Z,72.57
2017-09-02T05:28:29.828Z,72.55
2017-09-02T05:29:01.424Z,72.59
2017-09-02T05:29:33.013Z,72.56
2017-09-02T05:30:04.700Z,72.57
2017-09-02T05:30:36.342Z,72.57
2017-09-02T05:31:07.990Z,72.47
2017-09-02T05:31:39.630Z,72.60
2017-09-02T05:32:11.195Z,72.65
2017-09-02T05:32:42.768Z,72.48
2017-09-02T05:33:14.366Z,72.67
2017-09-02T05:33:45.960Z,72.52
2017-09-02T05:34:17.573Z,72.66
2017-09-02T05:34:49.173Z,72.64
2017-09-02T05:35:20.744Z,72.59
2017-09-02T05:35:52.357Z,72.66
2017-09-02T05:36:23.948Z,72.67
2017-09-02T05:36:55.978Z,72.54
2017-09-02T05:37:27.568Z,72.45
2017-09-02T05:37:59.146Z,72.26
2017-09-02T05:38:30.723Z,72.50
2017-09-02T05:39:02.310Z,72.49
2017-09-02T05:39:33.892Z,72.40
2017-09-02T05:40:05.488Z,72.34
2017-09-02T05:40:37.096Z,72.20
2017-09-02T05:41:08.676Z,72.25
2017-09-02T05:41:40.251Z,72.43
2017-09-02T05:42:11.901Z,72.40
2017-09-02T05:42:43.503Z,72.51
2017-09-02T05:43:15.086Z,72.61
2017-09-02T05:43:46.682Z,72.65
2017-09-02T05:44:18.288Z,72.58
2017-09-02T05:44:49.863Z,72.67
2017-09-02T05:45:21.431Z,72.60
2017-09-02T05:45:53.039Z,72.73
2017-09-02T05:46:24.611Z,72.61
2017-09-02T05:46:56.206Z,72.63
2017-09-02T05:47:27.802Z,72.76
2017-09-02T05:47:59.417Z,72.60
2017-09-02T05:48:31.043Z,72.71
2017-09-02T05:49:02.779Z,72.78
2017-09-02T05:49:34.383Z,72.74
2017-09-02T05:50:05.984Z,72.72
2017-09-02T05:50:37.566Z,72.80
2017-09-02T05:51:09.457Z,73.00
2017-09-02T05:51:41.028Z,72.77
2017-09-02T05:52:12.950Z,72.64
2017-09-02T05:52:52.022Z,72.70
2017-09-02T05:53:23.644Z,72.79
2017-09-02T05:53:55.230Z,72.70
2017-09-02T05:54:26.852Z,72.61
2017-09-02T05:54:58.460Z,72.70
2017-09-02T05:55:30.245Z,72.64
2017-09-02T05:56:01.846Z,72.73
2017-09-02T05:56:33.419Z,72.64
2017-09-02T05:57:05.029Z,72.63
2017-09-02T05:57:36.642Z,72.65
2017-09-02T05:58:08.286Z,72.54
2017-09-02T05:58:39.885Z,72.65
2017-09-02T05:59:11.495Z,72.67
2017-09-02T05:59:43.065Z,72.56
2017-09-02T06:00:14.647Z,72.70
2017-09-02T06:00:46.245Z,72.63
2017-09-02T06:01:17.835Z,72.57
2017-09-02T06:01:49.439Z,72.72
2017-09-02T06:02:21.013Z,72.60
2017-09-02T06:02:52.611Z,72.91
2017-09-02T06:03:24.226Z,72.70
2017-09-02T06:03:55.806Z,72.72
2017-09-02T06:04:27.399Z,72.70
2017-09-02T06:04:58.981Z,72.67
2017-09-02T06:05:30.578Z,72.84
2017-09-02T06:06:02.151Z,72.70
2017-09-02T06:06:33.771Z,72.95
2017-09-02T06:07:05.370Z,72.72
2017-09-02T06:07:36.972Z,72.84
2017-09-02T06:08:08.551Z,72.80
2017-09-02T06:08:40.193Z,72.76
2017-09-02T06:09:11.778Z,72.71
2017-09-02T06:09:43.355Z,72.68
2017-09-02T06:10:14.921Z,72.65
2017-09-02T06:10:46.497Z,72.93
2017-09-02T06:43:42.585Z,72.45
2017-09-02T06:44:58.515Z,73.11
2017-09-02T06:45:30.111Z,72.60
2017-09-02T06:46:01.743Z,72.56
2017-09-02T06:46:33.388Z,72.46
2017-09-02T06:47:05.039Z,72.40
2017-09-02T06:47:36.677Z,72.49
2017-09-02T06:48:08.276Z,71.38
2017-09-02T06:48:39.872Z,72.68
2017-09-02T06:49:11.606Z,72.49
2017-09-02T06:49:43.454Z,72.58
2017-09-02T06:50:15.057Z,72.64
2017-09-02T06:50:46.661Z,72.71
2017-09-02T06:51:18.373Z,72.55
2017-09-02T06:51:49.976Z,72.81
2017-09-02T06:52:21.579Z,72.85
2017-09-02T06:52:53.204Z,72.94
2017-09-02T06:53:24.804Z,73.02
2017-09-02T06:53:56.375Z,72.77
2017-09-02T06:54:28.002Z,72.69
2017-09-02T06:54:59.655Z,72.77
2017-09-02T06:55:31.240Z,72.82
2017-09-02T06:56:02.840Z,72.76
2017-09-02T06:56:34.427Z,72.90
2017-09-02T06:57:06.048Z,73.06
2017-09-02T06:57:37.644Z,73.03
2017-09-02T06:58:09.218Z,72.94
2017-09-02T06:58:40.798Z,72.99
2017-09-02T06:59:12.686Z,73.34
2017-09-02T06:59:44.441Z,73.03
2017-09-02T07:00:16.400Z,73.07
2017-09-02T07:00:48.029Z,73.34
2017-09-02T07:01:19.598Z,73.16
2017-09-02T07:01:51.312Z,72.92
2017-09-02T07:02:22.880Z,73.21
2017-09-02T07:02:54.440Z,73.43
2017-09-02T07:03:26.031Z,72.93
2017-09-02T07:03:57.647Z,73.00
2017-09-02T07:04:29.212Z,72.91
2017-09-02T07:05:01.486Z,72.76
2017-09-02T07:05:33.274Z,72.77
2017-09-02T07:06:04.875Z,72.84
2017-09-02T07:06:36.439Z,72.52
2017-09-02T07:07:08.038Z,71.62
2017-09-02T07:07:39.616Z,72.12
2017-09-02T07:08:11.322Z,71.86
2017-09-02T07:08:42.900Z,71.89
2017-09-02T07:09:14.483Z,71.82
2017-09-02T07:09:46.085Z,71.87
2017-09-02T07:10:17.657Z,72.01
2017-09-02T07:10:49.294Z,72.06
2017-09-02T07:11:20.881Z,72.08
2017-09-02T07:11:52.518Z,72.13
2017-09-02T07:12:24.103Z,72.16
2017-09-02T07:12:55.695Z,72.17
2017-09-02T07:13:27.275Z,72.19
2017-09-02T07:13:58.943Z,72.23
2017-09-02T07:14:30.570Z,72.23
2017-09-02T07:15:02.161Z,72.25
2017-09-02T07:15:33.726Z,72.26
2017-09-02T07:16:05.360Z,72.27
2017-09-02T07:16:36.982Z,72.26
2017-09-02T07:17:08.585Z,72.29
2017-09-02T07:17:40.179Z,72.30
2017-09-02T07:18:11.766Z,72.29
2017-09-02T07:18:43.459Z,72.29
2017-09-02T07:19:15.034Z,72.27
2017-09-02T07:19:46.741Z,72.28
2017-09-02T07:20:18.395Z,72.28
2017-09-02T07:20:50.124Z,72.27